Time;durP1;ratioP1;P1;durP2;ratioP2;P2;SDS_P1;SDS_P2;PMS_P1;PMS_P2;Temp;Humidity;BMP_temperature;BMP_pressure;BME280_temperature;BME280_humidity;BME280_pressure;Samples;Min_cycle;Max_cycle;Signal;HPM_P1;HPM_P2
2022/10/02 00:00:03;;;;;;;6.03;2.20;;;11.80;99.90;;;;;;5060290;28;20059;-36
2022/10/02 00:02:47;;;;;;;8.63;2.92;;;11.80;99.90;;;;;;5055156;28;20521;-36
2022/10/02 00:05:15;;;;;;;6.53;2.30;;;11.70;99.90;;;;;;5051008;28;20041;-37
2022/10/02 00:07:53;;;;;;;10.07;2.35;;;11.70;99.90;;;;;;5047101;28;20044;-36
2022/10/02 00:10:25;;;;;;;6.65;1.52;;;11.60;99.90;;;;;;5046886;28;20071;-38
2022/10/02 00:12:56;;;;;;;5.28;1.10;;;11.50;99.90;;;;;;5045295;28;20052;-37
2022/10/02 00:15:29;;;;;;;6.40;1.38;;;11.50;99.90;;;;;;5048619;28;20564;-36
2022/10/02 00:18:01;;;;;;;7.18;0.75;;;11.50;99.90;;;;;;5048881;28;20049;-36
2022/10/02 00:20:49;;;;;;;10.35;1.33;;;11.40;99.90;;;;;;5050626;28;20120;-36
2022/10/02 00:23:22;;;;;;;3.90;1.15;;;11.40;99.90;;;;;;5046562;28;20412;-36
2022/10/02 00:26:02;;;;;;;3.75;0.80;;;11.30;99.90;;;;;;5046600;28;20051;-36
2022/10/02 00:28:35;;;;;;;5.65;1.02;;;11.20;99.90;;;;;;5045511;28;20036;-36
2022/10/02 00:31:07;;;;;;;9.27;1.15;;;11.20;99.90;;;;;;5045659;28;20123;-36
2022/10/02 00:34:02;;;;;;;4.97;0.65;;;11.20;99.90;;;;;;5046487;28;20033;-36
2022/10/02 00:36:45;;;;;;;5.75;0.85;;;11.30;99.90;;;;;;5040424;28;20048;-37
2022/10/02 00:39:30;;;;;;;5.97;1.20;;;11.30;99.90;;;;;;5048905;28;20044;-37
2022/10/02 00:42:08;;;;;;;6.43;0.80;;;11.30;99.90;;;;;;5050171;28;20033;-36
2022/10/02 00:44:37;;;;;;;4.85;1.00;;;11.40;99.90;;;;;;5047968;28;20037;-37
2022/10/02 00:47:08;;;;;;;3.10;0.93;;;11.40;99.90;;;;;;5046021;28;20051;-37
2022/10/02 00:49:49;;;;;;;7.03;1.25;;;11.40;99.90;;;;;;5048998;28;20124;-37
2022/10/02 00:52:37;;;;;;;8.70;2.20;;;11.40;99.90;;;;;;5043457;28;20037;-36
2022/10/02 00:55:20;;;;;;;8.50;1.63;;;11.40;99.90;;;;;;5044757;28;20053;-37
2022/10/02 00:57:55;;;;;;;8.52;1.27;;;11.40;99.90;;;;;;5047409;28;20043;-37
2022/10/02 01:00:22;;;;;;;6.18;1.52;;;11.50;99.90;;;;;;5048902;28;20044;-37
2022/10/02 01:03:38;;;;;;;8.38;1.13;;;11.50;99.90;;;;;;5031336;28;20086;-37
2022/10/02 01:06:05;;;;;;;8.68;1.60;;;11.50;99.90;;;;;;5003596;28;20046;-36
2022/10/02 01:08:31;;;;;;;9.95;1.65;;;11.50;99.90;;;;;;4988507;28;20046;-37
2022/10/02 01:10:57;;;;;;;8.50;1.38;;;11.50;99.90;;;;;;5017106;28;20612;-37
2022/10/02 01:13:23;;;;;;;10.15;1.88;;;11.50;99.90;;;;;;5045562;28;20112;-37
2022/10/02 01:15:53;;;;;;;8.75;1.77;;;11.50;99.90;;;;;;5040338;28;20085;-37
2022/10/02 01:18:19;;;;;;;8.15;1.98;;;11.50;99.90;;;;;;5049421;28;20037;-37
2022/10/02 01:20:48;;;;;;;9.13;1.88;;;11.50;99.90;;;;;;5049186;28;20490;-37
2022/10/02 01:23:18;;;;;;;8.27;3.47;;;11.50;99.90;;;;;;5029557;28;20052;-37
2022/10/02 01:25:44;;;;;;;10.90;1.90;;;11.50;99.90;;;;;;5046337;28;21344;-37
2022/10/02 01:28:11;;;;;;;14.57;2.80;;;11.50;99.90;;;;;;5049501;28;20025;-37
2022/10/02 01:30:40;;;;;;;5.70;1.42;;;11.50;99.90;;;;;;5046198;28;20150;-36
2022/10/02 01:33:06;;;;;;;8.32;1.58;;;11.40;99.90;;;;;;5046672;28;20045;-37
2022/10/02 01:35:36;;;;;;;6.05;1.35;;;11.40;99.90;;;;;;5049170;28;20048;-37
2022/10/02 01:38:09;;;;;;;5.30;1.63;;;11.40;99.90;;;;;;5029232;28;20421;-36
2022/10/02 01:40:37;;;;;;;8.82;1.33;;;11.40;99.90;;;;;;5046058;28;20041;-36
2022/10/02 01:43:30;;;;;;;8.60;1.58;;;11.30;99.90;;;;;;5045659;28;20060;-38
2022/10/02 01:46:13;;;;;;;9.32;1.70;;;11.30;99.90;;;;;;5042201;28;20148;-36
2022/10/02 01:48:45;;;;;;;7.95;1.48;;;11.30;99.90;;;;;;5055770;28;20052;-38
2022/10/02 01:51:47;;;;;;;6.87;1.57;;;11.20;99.90;;;;;;5050170;28;20043;-38
2022/10/02 01:54:51;;;;;;;8.43;1.75;;;11.20;99.90;;;;;;5048404;28;20091;-37
2022/10/02 01:57:48;;;;;;;7.20;1.25;;;11.20;99.90;;;;;;5053641;28;20064;-35
2022/10/02 02:00:17;;;;;;;10.07;1.83;;;11.20;99.90;;;;;;5047020;28;20797;-36
2022/10/02 02:03:13;;;;;;;7.63;1.90;;;11.20;99.90;;;;;;5047347;28;20079;-35
2022/10/02 02:06:03;;;;;;;6.63;1.42;;;11.20;99.90;;;;;;5046969;28;20124;-35
2022/10/02 02:09:08;;;;;;;5.30;0.93;;;11.20;99.90;;;;;;5048594;28;20044;-36
2022/10/02 02:11:38;;;;;;;6.93;1.00;;;11.20;99.90;;;;;;5048991;28;20072;-34
2022/10/02 02:14:21;;;;;;;7.90;1.08;;;11.20;99.90;;;;;;5047120;28;20555;-35
2022/10/02 02:16:52;;;;;;;7.93;1.00;;;11.20;99.90;;;;;;5054303;28;20040;-36
2022/10/02 02:19:21;;;;;;;7.20;0.80;;;11.20;99.90;;;;;;5049893;28;20439;-38
2022/10/02 02:21:55;;;;;;;7.47;1.13;;;11.20;99.90;;;;;;5054475;28;20041;-38
2022/10/02 02:24:34;;;;;;;6.13;0.68;;;11.20;99.90;;;;;;5053016;28;20043;-38
2022/10/02 02:27:03;;;;;;;8.07;1.13;;;11.20;99.90;;;;;;5056079;28;20118;-38
2022/10/02 02:29:32;;;;;;;7.45;0.80;;;11.20;99.90;;;;;;5052049;28;20059;-38
2022/10/02 02:32:01;;;;;;;3.88;0.63;;;11.10;99.90;;;;;;5048047;28;20052;-37
2022/10/02 02:34:41;;;;;;;4.55;0.75;;;11.10;99.90;;;;;;5048385;28;20502;-37
2022/10/02 02:37:12;;;;;;;6.32;0.70;;;11.10;99.90;;;;;;5045977;28;20108;-37
2022/10/02 02:39:52;;;;;;;3.15;0.70;;;11.10;99.90;;;;;;5050254;28;20045;-36
2022/10/02 02:42:22;;;;;;;3.03;0.60;;;11.10;99.90;;;;;;5048544;28;20124;-37
2022/10/02 02:44:59;;;;;;;3.97;0.70;;;11.10;99.90;;;;;;5048820;28;20063;-37
2022/10/02 02:47:36;;;;;;;3.42;0.88;;;11.00;99.90;;;;;;5049475;28;20121;-37
2022/10/02 02:50:26;;;;;;;4.53;0.80;;;11.00;99.90;;;;;;5052614;28;20044;-37
2022/10/02 02:52:55;;;;;;;4.45;0.88;;;11.00;99.90;;;;;;5050487;28;20063;-38
2022/10/02 02:55:31;;;;;;;6.28;0.80;;;10.90;99.90;;;;;;5048094;28;20481;-37
2022/10/02 02:58:27;;;;;;;7.22;0.60;;;10.90;99.90;;;;;;5053965;28;20044;-36
2022/10/02 03:00:52;;;;;;;4.68;0.70;;;10.90;99.90;;;;;;5051728;28;20037;-37
2022/10/02 03:03:18;;;;;;;3.22;0.65;;;10.90;99.90;;;;;;5057145;28;20386;-39
2022/10/02 03:05:50;;;;;;;5.25;0.75;;;10.90;99.90;;;;;;5050724;28;20047;-39
2022/10/02 03:08:23;;;;;;;5.55;0.95;;;10.80;99.90;;;;;;5052240;28;20041;-38
2022/10/02 03:10:58;;;;;;;3.63;0.70;;;10.80;99.90;;;;;;5051056;28;20159;-38
2022/10/02 03:13:41;;;;;;;4.20;1.00;;;10.80;99.90;;;;;;5052045;28;20041;-40
2022/10/02 03:16:28;;;;;;;6.05;1.55;;;10.80;99.90;;;;;;5029942;28;20052;-39
2022/10/02 03:19:31;;;;;;;7.53;1.00;;;10.80;99.90;;;;;;5052262;28;20041;-40
2022/10/02 03:22:19;;;;;;;6.15;0.95;;;10.80;99.90;;;;;;5048580;28;20056;-40
2022/10/02 03:25:07;;;;;;;5.10;0.88;;;10.80;99.90;;;;;;5047304;28;20092;-38
2022/10/02 03:27:59;;;;;;;2.65;0.80;;;10.80;99.90;;;;;;5050875;28;20521;-37
2022/10/02 03:30:26;;;;;;;3.88;0.90;;;10.80;99.90;;;;;;5048842;28;20047;-36
2022/10/02 03:32:55;;;;;;;9.80;1.23;;;10.70;99.90;;;;;;5054683;28;20055;-36
2022/10/02 03:35:23;;;;;;;4.07;0.90;;;10.70;99.90;;;;;;5052605;28;20048;-36
2022/10/02 03:37:53;;;;;;;11.90;1.20;;;10.70;99.90;;;;;;5045092;28;20120;-36
2022/10/02 03:40:23;;;;;;;5.30;1.08;;;10.70;99.90;;;;;;5046718;28;20498;-36
2022/10/02 03:42:50;;;;;;;10.93;1.48;;;10.70;99.90;;;;;;5048476;28;20073;-39
2022/10/02 03:45:17;;;;;;;6.45;1.30;;;10.70;99.90;;;;;;5053751;28;20123;-41
2022/10/02 03:47:43;;;;;;;6.45;1.17;;;10.80;99.90;;;;;;5048059;28;20082;-41
2022/10/02 03:50:11;;;;;;;8.10;1.33;;;10.80;99.90;;;;;;5051288;28;20441;-41
2022/10/02 03:52:36;;;;;;;6.45;0.95;;;10.80;99.90;;;;;;5045671;28;20044;-41
2022/10/02 03:55:10;;;;;;;4.30;1.10;;;10.80;99.90;;;;;;5049641;28;20464;-39
2022/10/02 03:57:36;;;;;;;7.80;1.55;;;10.80;99.90;;;;;;5049617;28;20041;-37
2022/10/02 04:00:21;;;;;;;5.68;1.00;;;10.70;99.90;;;;;;5047444;28;20045;-37
2022/10/02 04:02:59;;;;;;;11.88;1.83;;;10.70;99.90;;;;;;5048841;28;20056;-37
2022/10/02 04:05:34;;;;;;;8.18;1.13;;;10.70;99.90;;;;;;5051686;28;20094;-36
2022/10/02 04:08:16;;;;;;;11.20;1.88;;;10.60;99.90;;;;;;5046589;28;20033;-38
2022/10/02 04:10:55;;;;;;;8.13;1.02;;;10.60;99.90;;;;;;5051963;28;20063;-37
2022/10/02 04:13:41;;;;;;;13.38;2.03;;;10.60;99.90;;;;;;5045967;28;20154;-37
2022/10/02 04:16:23;;;;;;;7.30;1.30;;;10.60;99.90;;;;;;5041341;28;20075;-39
2022/10/02 04:18:58;;;;;;;7.32;2.05;;;10.50;99.90;;;;;;5051740;28;20044;-38
2022/10/02 04:21:53;;;;;;;6.03;1.15;;;10.60;99.90;;;;;;5048623;28;20120;-38
2022/10/02 04:24:31;;;;;;;7.22;1.05;;;10.50;99.90;;;;;;5032274;28;20098;-37
2022/10/02 04:27:19;;;;;;;9.23;1.58;;;10.50;99.90;;;;;;5050199;28;20569;-38
2022/10/02 04:29:54;;;;;;;9.00;1.48;;;10.50;99.90;;;;;;5048383;28;20045;-39
2022/10/02 04:32:31;;;;;;;9.43;1.17;;;10.50;99.90;;;;;;5046525;28;20045;-38
2022/10/02 04:34:57;;;;;;;8.05;1.42;;;10.50;99.90;;;;;;5047063;28;20041;-39
2022/10/02 04:37:44;;;;;;;10.30;1.40;;;10.50;99.90;;;;;;5046942;28;20082;-39
2022/10/02 04:40:28;;;;;;;8.82;1.50;;;10.50;99.90;;;;;;5047637;28;20043;-43
2022/10/02 04:43:35;;;;;;;11.00;1.35;;;10.50;99.90;;;;;;5039475;28;20079;-41
2022/10/02 04:46:34;;;;;;;11.43;1.17;;;10.50;99.90;;;;;;5014423;28;20041;-38
2022/10/02 04:49:37;;;;;;;9.77;1.55;;;10.50;99.90;;;;;;5052039;28;20053;-38
2022/10/02 04:52:31;;;;;;;13.30;1.73;;;10.50;99.90;;;;;;5044066;28;20064;-38
2022/10/02 04:55:12;;;;;;;8.57;1.83;;;10.50;99.90;;;;;;5047063;28;20126;-39
2022/10/02 04:57:54;;;;;;;9.85;1.80;;;10.50;99.90;;;;;;5050093;28;20174;-38
2022/10/02 05:00:21;;;;;;;7.50;1.42;;;10.50;99.90;;;;;;5048359;28;20048;-40
2022/10/02 05:03:20;;;;;;;14.43;2.10;;;10.50;99.90;;;;;;5045149;28;20506;-38
2022/10/02 05:06:14;;;;;;;12.18;1.70;;;10.50;99.90;;;;;;5047018;28;20040;-39
2022/10/02 05:08:45;;;;;;;10.20;1.67;;;10.40;99.90;;;;;;5048202;28;20028;-38
2022/10/02 05:11:33;;;;;;;7.63;1.50;;;10.40;99.90;;;;;;5047394;28;20041;-39
2022/10/02 05:14:34;;;;;;;15.25;1.70;;;10.40;99.90;;;;;;5045417;28;20182;-39
2022/10/02 05:17:20;;;;;;;6.80;1.42;;;10.40;99.90;;;;;;5046829;28;20059;-39
2022/10/02 05:19:49;;;;;;;7.05;1.25;;;10.30;99.90;;;;;;5045374;28;20615;-41
2022/10/02 05:22:39;;;;;;;5.47;1.00;;;10.30;99.90;;;;;;5045014;28;20044;-37
2022/10/02 05:25:20;;;;;;;6.68;1.17;;;10.30;99.90;;;;;;5047327;28;20032;-41
2022/10/02 05:28:17;;;;;;;8.70;1.50;;;10.30;99.90;;;;;;5047337;28;20060;-40
2022/10/02 05:31:03;;;;;;;7.05;2.63;;;10.30;99.90;;;;;;5045635;28;20049;-39
2022/10/02 05:33:56;;;;;;;9.05;1.20;;;10.30;99.90;;;;;;5047143;28;20037;-40
2022/10/02 05:37:03;;;;;;;10.68;1.15;;;10.30;99.90;;;;;;5041961;28;20045;-41
2022/10/02 05:39:51;;;;;;;8.70;1.70;;;10.30;99.90;;;;;;5019153;28;20060;-37
2022/10/02 05:42:42;;;;;;;12.55;1.48;;;10.40;99.90;;;;;;5047543;28;20045;-37
2022/10/02 05:45:24;;;;;;;4.55;0.85;;;10.40;99.90;;;;;;5045295;28;20048;-37
2022/10/02 05:47:52;;;;;;;10.07;1.65;;;10.40;99.90;;;;;;5037668;28;20033;-37
2022/10/02 05:50:22;;;;;;;7.35;1.20;;;10.40;99.90;;;;;;5047618;28;20045;-37
2022/10/02 05:52:56;;;;;;;9.90;1.70;;;10.30;99.90;;;;;;5046852;28;20417;-37
2022/10/02 05:55:27;;;;;;;9.38;1.33;;;10.40;99.90;;;;;;5047110;28;20493;-36
2022/10/02 05:58:15;;;;;;;6.55;1.20;;;10.40;99.90;;;;;;5056140;28;20048;-36
2022/10/02 06:00:44;;;;;;;8.63;1.23;;;10.40;99.90;;;;;;5050208;28;20032;-37
2022/10/02 06:03:23;;;;;;;12.18;1.70;;;10.40;99.90;;;;;;5027887;28;20051;-37
2022/10/02 06:06:09;;;;;;;9.77;1.48;;;10.50;99.90;;;;;;5051455;28;20048;-36
2022/10/02 06:08:52;;;;;;;9.68;1.15;;;10.50;99.90;;;;;;5050775;28;20124;-37
2022/10/02 06:11:30;;;;;;;10.32;1.52;;;10.50;99.90;;;;;;5036980;28;20525;-36
2022/10/02 06:14:20;;;;;;;6.18;1.30;;;10.60;99.90;;;;;;5057485;28;20059;-36
2022/10/02 06:16:55;;;;;;;5.15;1.25;;;10.70;99.90;;;;;;5047125;28;20498;-44
2022/10/02 06:19:37;;;;;;;7.90;1.73;;;10.70;99.90;;;;;;5055980;28;20095;-37
2022/10/02 06:22:06;;;;;;;;;;;10.80;99.90;;;;;;5049470;28;20033;-38
2022/10/02 06:24:45;;;;;;;13.13;2.15;;;10.80;99.90;;;;;;5048953;28;19925;-38
2022/10/02 06:27:29;;;;;;;10.93;1.65;;;10.90;99.90;;;;;;5047818;28;20115;-37
2022/10/02 06:30:03;;;;;;;6.18;2.03;;;10.90;99.90;;;;;;5049462;28;21436;-37
2022/10/02 06:32:37;;;;;;;9.35;1.33;;;11.00;99.90;;;;;;5057146;28;20494;-38
2022/10/02 06:35:14;;;;;;;12.80;1.90;;;11.00;99.90;;;;;;5052307;28;20383;-37
2022/10/02 06:38:03;;;;;;;8.52;1.45;;;11.10;99.90;;;;;;5051286;28;20087;-37
2022/10/02 06:41:07;;;;;;;6.43;1.42;;;11.20;99.90;;;;;;5047890;28;20045;-37
2022/10/02 06:43:54;;;;;;;9.35;1.40;;;11.30;99.90;;;;;;5050394;28;20561;-40
2022/10/02 06:46:54;;;;;;;8.73;1.25;;;11.40;99.90;;;;;;5049441;28;20083;-42
2022/10/02 06:49:49;;;;;;;8.25;1.23;;;11.40;99.90;;;;;;5055176;28;20041;-41
2022/10/02 06:52:50;;;;;;;6.80;1.38;;;11.50;99.90;;;;;;5027288;28;20139;-40
2022/10/02 06:55:25;;;;;;;11.55;1.15;;;11.60;99.90;;;;;;5046462;28;20041;-42
2022/10/02 06:58:02;;;;;;;7.70;1.60;;;11.70;99.90;;;;;;5049846;28;20132;-42
2022/10/02 07:00:32;;;;;;;10.13;2.22;;;11.80;99.90;;;;;;5047678;28;20045;-42
2022/10/02 07:03:21;;;;;;;6.38;1.17;;;11.80;99.90;;;;;;5052437;28;20469;-39
2022/10/02 07:06:20;;;;;;;9.13;1.70;;;11.90;99.90;;;;;;5048013;28;20045;-40
2022/10/02 07:08:59;;;;;;;9.50;1.23;;;11.90;99.90;;;;;;5049820;28;20116;-39
2022/10/02 07:12:01;;;;;;;11.13;1.40;;;11.90;99.90;;;;;;5048488;28;20097;-40
2022/10/02 07:15:08;;;;;;;11.55;1.42;;;12.00;99.90;;;;;;5049974;28;20398;-40
2022/10/02 07:17:49;;;;;;;7.85;1.40;;;12.10;99.90;;;;;;5024876;28;20073;-39
2022/10/02 07:20:34;;;;;;;8.75;1.40;;;12.20;99.90;;;;;;5046715;28;20076;-38
2022/10/02 07:23:37;;;;;;;8.65;1.60;;;12.40;99.90;;;;;;5048547;28;20044;-42
2022/10/02 07:26:06;;;;;;;8.90;1.60;;;12.50;99.90;;;;;;5045151;28;21327;-38
2022/10/02 07:28:45;;;;;;;9.38;1.60;;;12.60;99.90;;;;;;5046562;28;20037;-42
2022/10/02 07:31:11;;;;;;;10.68;1.27;;;12.70;99.90;;;;;;5050753;28;20098;-40
2022/10/02 07:33:43;;;;;;;12.77;1.70;;;12.90;99.90;;;;;;5055254;28;20039;-42
2022/10/02 07:36:32;;;;;;;9.88;2.30;;;13.10;99.90;;;;;;5039172;28;20064;-38
2022/10/02 07:39:14;;;;;;;9.00;1.58;;;13.20;99.90;;;;;;5033960;28;20399;-41
2022/10/02 07:42:12;;;;;;;11.38;1.65;;;13.40;99.90;;;;;;5048978;28;20064;-41
2022/10/02 07:45:06;;;;;;;7.07;1.13;;;13.60;99.90;;;;;;5043995;28;20953;-39
2022/10/02 07:47:35;;;;;;;13.68;1.58;;;13.80;99.90;;;;;;5044380;28;20041;-40
2022/10/02 07:50:17;;;;;;;10.20;1.35;;;13.90;99.90;;;;;;5055569;28;20123;-36
2022/10/02 07:53:37;;;;;;;10.40;1.40;;;14.00;99.90;;;;;;5043288;28;20626;-37
2022/10/02 07:56:10;;;;;;;9.00;1.10;;;14.10;99.90;;;;;;5029163;28;20063;-36
2022/10/02 07:58:43;;;;;;;6.57;1.10;;;14.10;99.90;;;;;;5048330;28;20033;-36
2022/10/02 08:01:18;;;;;;;9.90;1.08;;;14.00;99.90;;;;;;5048957;28;20079;-37
2022/10/02 08:03:48;;;;;;;8.50;1.05;;;13.90;99.90;;;;;;5051925;28;20041;-37
2022/10/02 08:06:15;;;;;;;7.80;1.55;;;13.90;99.90;;;;;;5050290;28;20045;-46
2022/10/02 08:09:01;;;;;;;5.90;1.40;;;13.90;99.90;;;;;;5051242;28;20042;-36
2022/10/02 08:11:33;;;;;;;9.85;1.10;;;13.90;99.90;;;;;;5049602;28;20039;-39
2022/10/02 08:14:11;;;;;;;13.80;1.30;;;14.00;99.90;;;;;;5048739;28;20049;-41
2022/10/02 08:16:45;;;;;;;7.95;1.27;;;14.00;99.90;;;;;;5049121;28;20050;-41
2022/10/02 08:19:15;;;;;;;11.23;1.20;;;14.10;99.90;;;;;;5041276;28;20040;-37
2022/10/02 08:21:55;;;;;;;7.28;1.17;;;14.20;99.90;;;;;;5046187;28;20536;-36
2022/10/02 08:24:31;;;;;;;8.48;1.98;;;14.20;99.90;;;;;;5048800;28;20047;-37
2022/10/02 08:27:03;;;;;;;7.93;1.20;;;14.30;99.90;;;;;;5045192;28;20182;-37
2022/10/02 08:29:40;;;;;;;7.10;1.27;;;14.40;99.90;;;;;;5046696;28;20045;-37
2022/10/02 08:32:13;;;;;;;6.72;1.00;;;14.50;99.90;;;;;;5049192;28;20052;-41
2022/10/02 08:34:40;;;;;;;8.20;1.40;;;14.70;99.90;;;;;;5046504;28;20048;-39
2022/10/02 08:37:15;;;;;;;8.85;1.83;;;14.80;99.90;;;;;;5040221;28;20529;-40
2022/10/02 08:39:43;;;;;;;13.38;1.30;;;14.90;99.90;;;;;;5034967;28;20045;-40
2022/10/02 08:42:40;;;;;;;10.02;1.27;;;14.90;99.90;;;;;;5043280;28;20049;-38
2022/10/02 08:45:46;;;;;;;7.63;1.30;;;14.90;99.90;;;;;;5044046;28;20075;-39
2022/10/02 08:48:38;;;;;;;11.82;1.50;;;14.80;99.90;;;;;;5017187;28;20398;-41
2022/10/02 08:51:16;;;;;;;7.57;1.33;;;14.80;99.90;;;;;;5046921;28;20049;-39
2022/10/02 08:54:29;;;;;;;5.85;1.10;;;14.90;99.90;;;;;;5045846;28;20055;-40
2022/10/02 08:57:04;;;;;;;6.70;0.80;;;15.00;99.90;;;;;;4980509;28;20562;-39
2022/10/02 08:59:56;;;;;;;8.88;1.10;;;15.10;99.90;;;;;;4985165;28;20042;-42
2022/10/02 09:02:53;;;;;;;8.77;1.13;;;15.20;99.90;;;;;;4990558;28;20132;-42
2022/10/02 09:05:38;;;;;;;11.60;1.30;;;15.30;99.90;;;;;;5049173;28;20109;-38
2022/10/02 09:08:28;;;;;;;8.20;0.90;;;15.40;99.90;;;;;;5047650;28;20049;-37
2022/10/02 09:11:34;;;;;;;7.53;0.95;;;15.50;99.90;;;;;;5044125;28;20095;-38
2022/10/02 09:14:15;;;;;;;7.70;1.20;;;15.60;99.90;;;;;;5046184;28;20053;-38
2022/10/02 09:17:03;;;;;;;6.88;0.90;;;15.60;99.90;;;;;;5048419;28;20498;-38
2022/10/02 09:20:19;;;;;;;11.75;1.50;;;15.60;99.90;;;;;;5053903;28;20045;-37
2022/10/02 09:23:21;;;;;;;9.40;1.65;;;15.60;99.90;;;;;;5007353;28;20048;-36
2022/10/02 09:26:14;;;;;;;7.45;1.08;;;15.60;99.90;;;;;;5047015;28;20041;-36
2022/10/02 09:28:48;;;;;;;;;;;15.70;99.90;;;;;;5045811;28;20037;-36
2022/10/02 09:31:28;;;;;;;6.07;0.88;;;15.70;99.90;;;;;;5048474;28;19970;-35
2022/10/02 09:34:32;;;;;;;9.45;0.88;;;15.80;99.90;;;;;;5029986;28;20607;-35
2022/10/02 09:37:23;;;;;;;8.25;1.48;;;15.70;99.90;;;;;;5044683;28;20045;-35
2022/10/02 09:40:26;;;;;;;8.65;1.55;;;15.70;99.90;;;;;;5030791;28;20041;-36
2022/10/02 09:43:09;;;;;;;;;;;15.80;99.90;;;;;;5046994;28;20065;-35
2022/10/02 09:45:54;;;;;;;8.27;1.10;;;15.90;99.90;;;;;;5051650;28;19943;-36
2022/10/02 09:49:18;;;;;;;6.75;1.33;;;16.00;99.90;;;;;;4995120;28;20053;-36
2022/10/02 09:52:13;;;;;;;7.25;1.75;;;16.00;99.90;;;;;;4964301;28;20522;-36
2022/10/02 09:54:59;;;;;;;9.45;0.98;;;16.10;99.90;;;;;;4950673;28;20051;-36
2022/10/02 09:57:57;;;;;;;6.97;1.08;;;16.10;99.90;;;;;;5014443;28;20517;-36
2022/10/02 10:00:47;;;;;;;9.60;1.77;;;16.20;99.90;;;;;;5054121;28;20049;-35
2022/10/02 10:03:35;;;;;;;8.57;1.13;;;16.30;99.90;;;;;;5046448;28;20067;-35
2022/10/02 10:06:23;;;;;;;4.65;0.82;;;16.20;99.90;;;;;;5043202;28;20063;-57
2022/10/02 10:09:18;;;;;;;7.40;0.93;;;16.30;99.90;;;;;;5047764;28;20041;-35
2022/10/02 10:11:58;;;;;;;8.63;0.85;;;16.30;99.90;;;;;;5023037;28;20045;-35
2022/10/02 10:15:22;;;;;;;12.20;1.50;;;16.50;99.90;;;;;;5047143;28;20120;-35
2022/10/02 10:17:54;;;;;;;8.00;1.00;;;16.70;98.60;;;;;;5046772;28;20487;-36
2022/10/02 10:20:35;;;;;;;15.18;1.20;;;16.80;99.80;;;;;;5047520;28;20132;-36
2022/10/02 10:23:20;;;;;;;7.70;1.00;;;16.80;99.70;;;;;;5043234;28;20130;-36
2022/10/02 10:26:17;;;;;;;4.18;0.90;;;16.90;99.20;;;;;;5043687;28;20041;-36
2022/10/02 10:28:42;;;;;;;9.68;0.90;;;17.00;98.10;;;;;;5042839;28;20541;-36
2022/10/02 10:31:48;;;;;;;6.38;1.23;;;17.20;98.50;;;;;;5048020;28;20124;-35
2022/10/02 10:34:31;;;;;;;8.52;1.50;;;17.20;95.90;;;;;;5040794;28;20045;-36
2022/10/02 10:40:23;;;;;;;9.73;1.60;;;17.30;96.70;;;;;;5044859;28;20512;-36
2022/10/02 10:43:16;;;;;;;8.13;0.88;;;17.40;97.30;;;;;;5048551;28;20059;-36
2022/10/02 10:45:46;;;;;;;7.00;1.27;;;17.60;96.90;;;;;;5051464;28;20041;-34
2022/10/02 10:48:26;;;;;;;11.18;3.25;;;17.70;96.10;;;;;;5052926;28;20056;-36
2022/10/02 10:51:15;;;;;;;21.50;10.00;;;17.80;95.20;;;;;;5049706;28;20075;-36
2022/10/02 10:54:07;;;;;;;9.00;3.05;;;17.90;93.90;;;;;;5051096;28;20098;-37
2022/10/02 10:57:22;;;;;;;10.98;1.35;;;17.90;94.10;;;;;;5054151;28;20045;-36
2022/10/02 11:00:00;;;;;;;9.43;1.38;;;17.80;92.50;;;;;;5032663;28;20047;-36
2022/10/02 11:02:47;;;;;;;9.00;1.70;;;17.70;94.00;;;;;;5040468;28;20057;-36
2022/10/02 11:05:30;;;;;;;6.93;1.08;;;17.40;93.60;;;;;;5048244;28;20048;-36
2022/10/02 11:08:05;;;;;;;7.78;1.05;;;17.30;94.10;;;;;;5047939;28;20056;-36
2022/10/02 11:10:49;;;;;;;7.10;1.13;;;17.30;93.90;;;;;;5050681;28;20075;-35
2022/10/02 11:13:41;;;;;;;8.00;1.00;;;17.40;94.30;;;;;;5050839;28;20521;-35
2022/10/02 11:16:22;;;;;;;8.30;1.08;;;17.70;94.40;;;;;;5049651;28;20115;-35
2022/10/02 11:19:25;;;;;;;6.28;0.82;;;17.90;93.50;;;;;;5053470;28;20049;-35
2022/10/02 11:22:06;;;;;;;8.68;1.13;;;18.00;92.40;;;;;;5046566;28;20497;-37
2022/10/02 11:24:54;;;;;;;5.18;0.80;;;18.00;92.60;;;;;;5044021;28;20517;-36
2022/10/02 11:27:22;;;;;;;4.32;0.60;;;18.10;92.40;;;;;;5047465;28;20045;-35
2022/10/02 11:30:08;;;;;;;8.07;1.05;;;17.90;92.20;;;;;;5049264;28;20161;-35
2022/10/02 11:32:43;;;;;;;7.32;1.00;;;17.70;92.40;;;;;;5052835;28;20053;-35
2022/10/02 11:35:18;;;;;;;4.35;1.00;;;17.40;92.50;;;;;;5049570;28;20045;-37
2022/10/02 11:38:02;;;;;;;7.03;1.20;;;17.40;92.80;;;;;;5043071;28;20049;-35
2022/10/02 11:40:31;;;;;;;7.68;1.23;;;17.40;92.80;;;;;;5046885;28;20045;-36
2022/10/02 11:43:16;;;;;;;7.03;0.93;;;17.60;92.60;;;;;;5052685;28;20033;-36
2022/10/02 11:46:06;;;;;;;5.40;0.88;;;17.90;90.30;;;;;;5043575;28;20165;-36
2022/10/02 11:48:50;;;;;;;5.07;0.80;;;18.20;90.70;;;;;;5040897;28;20490;-35
2022/10/02 11:51:34;;;;;;;5.40;0.88;;;18.50;84.50;;;;;;5047007;28;20135;-35
2022/10/02 11:54:09;;;;;;;8.23;1.20;;;18.50;85.20;;;;;;5041395;28;20056;-35
2022/10/02 11:57:00;;;;;;;9.85;1.23;;;18.50;86.30;;;;;;5048369;28;20047;-36
2022/10/02 11:59:53;;;;;;;8.63;1.00;;;18.40;86.50;;;;;;5040253;28;20126;-36
2022/10/02 12:02:46;;;;;;;6.15;0.90;;;18.10;88.30;;;;;;5046140;28;20037;-35
2022/10/02 12:05:25;;;;;;;9.20;1.02;;;17.70;89.50;;;;;;5045949;28;20041;-35
2022/10/02 12:08:15;;;;;;;8.10;1.13;;;17.60;90.20;;;;;;5046713;28;20509;-36
2022/10/02 12:10:57;;;;;;;5.80;1.08;;;17.70;89.50;;;;;;5048306;28;20574;-36
2022/10/02 12:13:53;;;;;;;7.70;1.00;;;17.60;88.30;;;;;;5052191;28;20037;-36
2022/10/02 12:16:35;;;;;;;7.03;1.58;;;17.30;89.20;;;;;;5058384;28;20044;-36
2022/10/02 12:19:29;;;;;;;9.80;1.10;;;17.30;90.80;;;;;;5050413;28;20056;-37
2022/10/02 12:28:53;;;;;;;10.80;1.33;;;19.70;80.30;;;;;;5040455;28;20037;-37
2022/10/02 12:31:38;;;;;;;5.50;0.70;;;20.50;72.60;;;;;;5044150;28;20544;-37
2022/10/02 12:34:22;;;;;;;6.90;1.27;;;21.00;69.60;;;;;;5043171;28;20140;-37
2022/10/02 12:37:21;;;;;;;7.70;0.85;;;21.50;65.50;;;;;;5047628;28;20613;-36
2022/10/02 12:40:11;;;;;;;7.15;0.88;;;21.70;66.10;;;;;;5046367;28;20037;-37
2022/10/02 12:43:28;;;;;;;5.45;0.65;;;21.90;64.90;;;;;;5044894;28;20041;-36
2022/10/02 12:46:14;;;;;;;7.00;1.25;;;22.20;60.80;;;;;;4989666;28;20139;-37
2022/10/02 12:49:11;;;;;;;5.25;0.88;;;22.30;59.70;;;;;;5046357;28;20040;-36
2022/10/02 12:52:27;;;;;;;6.07;0.77;;;22.40;58.90;;;;;;5047794;28;20068;-37
2022/10/02 12:55:16;;;;;;;5.70;0.70;;;22.40;56.80;;;;;;5035002;28;20036;-37
2022/10/02 12:58:21;;;;;;;6.45;0.93;;;22.40;57.50;;;;;;5021746;28;20063;-36
2022/10/02 13:00:58;;;;;;;4.53;0.73;;;22.60;54.00;;;;;;5047112;28;20405;-36
2022/10/02 13:03:47;;;;;;;5.80;0.85;;;22.10;55.70;;;;;;5045350;28;20072;-36
2022/10/02 13:06:45;;;;;;;10.10;1.15;;;21.10;58.70;;;;;;5055692;28;20545;-36
2022/10/02 13:09:16;;;;;;;8.00;1.20;;;20.30;61.70;;;;;;4991093;28;20183;-37
2022/10/02 13:12:03;;;;;;;5.10;1.05;;;19.60;65.60;;;;;;5051653;28;20114;-36
2022/10/02 13:14:42;;;;;;;4.65;0.98;;;18.90;69.20;;;;;;5048472;28;20446;-37
2022/10/02 13:17:32;;;;;;;5.75;0.88;;;18.40;73.00;;;;;;5045900;28;20076;-37
2022/10/02 13:20:42;;;;;;;8.80;1.10;;;18.10;76.10;;;;;;5044174;28;20037;-36
2022/10/02 13:23:19;;;;;;;7.13;1.00;;;17.90;78.60;;;;;;4981324;28;20038;-37
2022/10/02 13:26:11;;;;;;;7.03;1.42;;;17.70;80.00;;;;;;5029748;28;20045;-36
2022/10/02 13:29:03;;;;;;;9.68;1.15;;;18.00;79.90;;;;;;5037007;28;20123;-37
2022/10/02 13:32:00;;;;;;;8.02;1.23;;;19.30;73.50;;;;;;5039994;28;20041;-36
2022/10/02 13:34:57;;;;;;;8.00;1.00;;;20.50;69.30;;;;;;5048927;28;20573;-36
2022/10/02 13:37:23;;;;;;;5.43;0.80;;;21.70;60.20;;;;;;5048630;28;20045;-36
2022/10/02 13:40:01;;;;;;;6.80;0.52;;;22.40;60.60;;;;;;5048644;28;20048;-41
2022/10/02 13:42:53;;;;;;;6.38;1.13;;;22.90;55.20;;;;;;5042318;28;20659;-42
2022/10/02 13:45:33;;;;;;;7.78;1.08;;;23.00;56.10;;;;;;5012088;28;20091;-40
2022/10/02 13:48:24;;;;;;;5.25;1.08;;;23.30;55.10;;;;;;5038749;28;20041;-42
2022/10/02 13:51:17;;;;;;;6.72;0.90;;;23.50;54.20;;;;;;5052861;28;20044;-42
2022/10/02 13:53:48;;;;;;;9.80;0.98;;;23.80;52.50;;;;;;5042472;28;20033;-41
2022/10/02 13:56:49;;;;;;;5.55;1.00;;;23.70;53.50;;;;;;5041968;28;20566;-40
2022/10/02 13:59:24;;;;;;;5.57;0.88;;;23.90;53.00;;;;;;5000335;28;20421;-42
2022/10/02 14:02:12;;;;;;;5.90;1.08;;;24.20;52.70;;;;;;5051456;28;20079;-39
2022/10/02 14:04:45;;;;;;;4.50;1.10;;;24.70;51.10;;;;;;5041957;28;20046;-40
2022/10/02 14:07:35;;;;;;;6.53;1.13;;;24.90;50.80;;;;;;5050717;28;20039;-43
2022/10/02 14:10:11;;;;;;;6.60;0.80;;;25.00;49.00;;;;;;5039905;28;20052;-38
2022/10/02 14:13:06;;;;;;;7.45;1.10;;;24.90;49.40;;;;;;5054221;28;20083;-40
2022/10/02 14:15:54;;;;;;;7.28;1.08;;;25.30;48.50;;;;;;5047511;28;20045;-42